sensor_id;sensor_type;location;lat;lon;timestamp;P1;durP1;ratioP1;P2;durP2;ratioP2
19869;SDS011;10097;50.862;4.696;2022-12-13T00:00:16;97.73;;;36.53;;
19869;SDS011;10097;50.862;4.696;2022-12-13T00:02:43;102.13;;;37.30;;
19869;SDS011;10097;50.862;4.696;2022-12-13T00:05:10;92.00;;;35.53;;
19869;SDS011;10097;50.862;4.696;2022-12-13T00:07:36;91.77;;;31.57;;
19869;SDS011;10097;50.862;4.696;2022-12-13T00:10:02;79.57;;;29.53;;
19869;SDS011;10097;50.862;4.696;2022-12-13T00:12:29;79.80;;;27.27;;
19869;SDS011;10097;50.862;4.696;2022-12-13T00:14:55;70.23;;;25.60;;
19869;SDS011;10097;50.862;4.696;2022-12-13T00:17:20;58.10;;;23.00;;
19869;SDS011;10097;50.862;4.696;2022-12-13T00:19:46;55.90;;;21.23;;
19869;SDS011;10097;50.862;4.696;2022-12-13T00:22:12;49.80;;;18.50;;
19869;SDS011;10097;50.862;4.696;2022-12-13T00:24:38;49.20;;;18.27;;
19869;SDS011;10097;50.862;4.696;2022-12-13T00:27:04;46.67;;;16.43;;
19869;SDS011;10097;50.862;4.696;2022-12-13T00:29:30;43.33;;;16.70;;
19869;SDS011;10097;50.862;4.696;2022-12-13T00:31:56;38.10;;;16.00;;
19869;SDS011;10097;50.862;4.696;2022-12-13T00:34:22;41.60;;;16.00;;
19869;SDS011;10097;50.862;4.696;2022-12-13T00:36:48;38.00;;;14.47;;
19869;SDS011;10097;50.862;4.696;2022-12-13T00:39:14;42.93;;;15.63;;
19869;SDS011;10097;50.862;4.696;2022-12-13T00:41:40;38.27;;;13.93;;
19869;SDS011;10097;50.862;4.696;2022-12-13T00:44:08;38.60;;;15.57;;
19869;SDS011;10097;50.862;4.696;2022-12-13T00:46:36;36.00;;;15.47;;
19869;SDS011;10097;50.862;4.696;2022-12-13T00:49:02;40.40;;;15.57;;
19869;SDS011;10097;50.862;4.696;2022-12-13T00:51:29;34.63;;;14.60;;
19869;SDS011;10097;50.862;4.696;2022-12-13T00:53:56;32.40;;;13.47;;
19869;SDS011;10097;50.862;4.696;2022-12-13T00:56:22;38.10;;;15.13;;
19869;SDS011;10097;50.862;4.696;2022-12-13T00:58:49;35.60;;;14.97;;
19869;SDS011;10097;50.862;4.696;2022-12-13T01:01:16;39.00;;;16.60;;
19869;SDS011;10097;50.862;4.696;2022-12-13T01:03:43;43.33;;;15.50;;
19869;SDS011;10097;50.862;4.696;2022-12-13T01:06:20;38.37;;;14.77;;
19869;SDS011;10097;50.862;4.696;2022-12-13T01:08:49;43.53;;;16.60;;
19869;SDS011;10097;50.862;4.696;2022-12-13T01:11:15;38.50;;;16.07;;
19869;SDS011;10097;50.862;4.696;2022-12-13T01:13:41;43.70;;;16.83;;
19869;SDS011;10097;50.862;4.696;2022-12-13T01:16:08;37.10;;;16.43;;
19869;SDS011;10097;50.862;4.696;2022-12-13T01:18:36;35.60;;;14.80;;
19869;SDS011;10097;50.862;4.696;2022-12-13T01:21:04;39.87;;;15.60;;
19869;SDS011;10097;50.862;4.696;2022-12-13T01:23:32;38.07;;;13.77;;
19869;SDS011;10097;50.862;4.696;2022-12-13T01:26:02;38.70;;;13.87;;
19869;SDS011;10097;50.862;4.696;2022-12-13T01:28:29;31.30;;;14.30;;
19869;SDS011;10097;50.862;4.696;2022-12-13T01:30:56;39.77;;;14.77;;
19869;SDS011;10097;50.862;4.696;2022-12-13T01:33:24;34.77;;;14.60;;
19869;SDS011;10097;50.862;4.696;2022-12-13T01:35:50;37.70;;;14.30;;
19869;SDS011;10097;50.862;4.696;2022-12-13T01:38:16;40.30;;;14.23;;
19869;SDS011;10097;50.862;4.696;2022-12-13T01:40:46;31.83;;;14.93;;
19869;SDS011;10097;50.862;4.696;2022-12-13T01:43:13;32.27;;;13.63;;
19869;SDS011;10097;50.862;4.696;2022-12-13T01:45:40;36.07;;;13.53;;
19869;SDS011;10097;50.862;4.696;2022-12-13T01:48:08;35.13;;;14.00;;
19869;SDS011;10097;50.862;4.696;2022-12-13T01:50:44;34.93;;;14.17;;
19869;SDS011;10097;50.862;4.696;2022-12-13T01:53:18;36.60;;;13.77;;
19869;SDS011;10097;50.862;4.696;2022-12-13T01:55:52;37.07;;;14.83;;
19869;SDS011;10097;50.862;4.696;2022-12-13T01:58:20;35.47;;;13.57;;
19869;SDS011;10097;50.862;4.696;2022-12-13T02:00:46;32.97;;;13.77;;
19869;SDS011;10097;50.862;4.696;2022-12-13T02:03:13;35.10;;;14.33;;
19869;SDS011;10097;50.862;4.696;2022-12-13T02:05:40;38.73;;;14.07;;
19869;SDS011;10097;50.862;4.696;2022-12-13T02:08:12;35.07;;;15.23;;
19869;SDS011;10097;50.862;4.696;2022-12-13T02:10:39;37.70;;;13.67;;
19869;SDS011;10097;50.862;4.696;2022-12-13T02:13:06;31.17;;;13.90;;
19869;SDS011;10097;50.862;4.696;2022-12-13T02:18:30;32.23;;;13.20;;
19869;SDS011;10097;50.862;4.696;2022-12-13T02:27:09;31.77;;;13.23;;
19869;SDS011;10097;50.862;4.696;2022-12-13T02:35:04;32.70;;;12.80;;
19869;SDS011;10097;50.862;4.696;2022-12-13T02:37:52;32.37;;;12.67;;
19869;SDS011;10097;50.862;4.696;2022-12-13T02:40:22;31.80;;;12.60;;
19869;SDS011;10097;50.862;4.696;2022-12-13T02:42:59;32.77;;;13.30;;
19869;SDS011;10097;50.862;4.696;2022-12-13T02:45:30;36.57;;;14.27;;
19869;SDS011;10097;50.862;4.696;2022-12-13T02:48:02;36.20;;;13.40;;
19869;SDS011;10097;50.862;4.696;2022-12-13T02:50:31;34.77;;;13.67;;
19869;SDS011;10097;50.862;4.696;2022-12-13T02:52:58;36.83;;;13.20;;
19869;SDS011;10097;50.862;4.696;2022-12-13T02:55:25;34.97;;;13.67;;
19869;SDS011;10097;50.862;4.696;2022-12-13T02:57:51;33.30;;;13.03;;
19869;SDS011;10097;50.862;4.696;2022-12-13T03:11:43;38.53;;;14.40;;
19869;SDS011;10097;50.862;4.696;2022-12-13T03:14:55;38.30;;;13.73;;
19869;SDS011;10097;50.862;4.696;2022-12-13T03:17:44;29.50;;;12.43;;
19869;SDS011;10097;50.862;4.696;2022-12-13T03:20:16;31.07;;;14.13;;
19869;SDS011;10097;50.862;4.696;2022-12-13T03:22:42;34.07;;;13.23;;
19869;SDS011;10097;50.862;4.696;2022-12-13T03:25:08;37.73;;;14.90;;
19869;SDS011;10097;50.862;4.696;2022-12-13T03:27:34;36.93;;;13.60;;
19869;SDS011;10097;50.862;4.696;2022-12-13T03:30:00;33.20;;;14.00;;
19869;SDS011;10097;50.862;4.696;2022-12-13T03:32:25;32.13;;;13.23;;
19869;SDS011;10097;50.862;4.696;2022-12-13T03:34:51;38.50;;;12.77;;
19869;SDS011;10097;50.862;4.696;2022-12-13T03:37:16;32.57;;;12.93;;
19869;SDS011;10097;50.862;4.696;2022-12-13T03:39:42;30.03;;;12.50;;
19869;SDS011;10097;50.862;4.696;2022-12-13T03:42:08;38.23;;;13.00;;
19869;SDS011;10097;50.862;4.696;2022-12-13T03:44:33;33.63;;;13.00;;
19869;SDS011;10097;50.862;4.696;2022-12-13T03:46:59;29.63;;;12.70;;
19869;SDS011;10097;50.862;4.696;2022-12-13T03:49:25;29.17;;;12.60;;
19869;SDS011;10097;50.862;4.696;2022-12-13T03:51:50;31.00;;;12.13;;
19869;SDS011;10097;50.862;4.696;2022-12-13T03:54:16;35.40;;;12.33;;
19869;SDS011;10097;50.862;4.696;2022-12-13T03:56:42;31.23;;;12.93;;
19869;SDS011;10097;50.862;4.696;2022-12-13T03:59:07;31.30;;;12.67;;
19869;SDS011;10097;50.862;4.696;2022-12-13T04:01:33;32.63;;;12.37;;
19869;SDS011;10097;50.862;4.696;2022-12-13T04:03:58;34.23;;;13.83;;
19869;SDS011;10097;50.862;4.696;2022-12-13T04:06:24;27.93;;;12.17;;
19869;SDS011;10097;50.862;4.696;2022-12-13T04:08:50;34.93;;;13.23;;
19869;SDS011;10097;50.862;4.696;2022-12-13T04:11:16;35.63;;;12.17;;
19869;SDS011;10097;50.862;4.696;2022-12-13T04:14:01;30.30;;;11.93;;
19869;SDS011;10097;50.862;4.696;2022-12-13T04:16:26;32.27;;;13.17;;
19869;SDS011;10097;50.862;4.696;2022-12-13T04:18:52;30.27;;;11.93;;
19869;SDS011;10097;50.862;4.696;2022-12-13T04:21:17;28.00;;;12.13;;
19869;SDS011;10097;50.862;4.696;2022-12-13T04:23:43;30.20;;;11.63;;
19869;SDS011;10097;50.862;4.696;2022-12-13T04:26:09;30.80;;;11.77;;
19869;SDS011;10097;50.862;4.696;2022-12-13T04:28:34;37.50;;;12.63;;
19869;SDS011;10097;50.862;4.696;2022-12-13T04:31:00;41.37;;;13.83;;
19869;SDS011;10097;50.862;4.696;2022-12-13T04:33:26;34.40;;;10.90;;
19869;SDS011;10097;50.862;4.696;2022-12-13T04:35:51;35.40;;;13.20;;
19869;SDS011;10097;50.862;4.696;2022-12-13T04:38:17;34.07;;;12.53;;
19869;SDS011;10097;50.862;4.696;2022-12-13T04:40:43;31.53;;;11.63;;
19869;SDS011;10097;50.862;4.696;2022-12-13T04:43:08;40.50;;;14.17;;
19869;SDS011;10097;50.862;4.696;2022-12-13T04:45:34;40.80;;;12.70;;
19869;SDS011;10097;50.862;4.696;2022-12-13T04:48:00;34.97;;;13.27;;
19869;SDS011;10097;50.862;4.696;2022-12-13T04:50:25;32.70;;;13.50;;
19869;SDS011;10097;50.862;4.696;2022-12-13T04:52:51;34.73;;;12.20;;
19869;SDS011;10097;50.862;4.696;2022-12-13T04:55:17;34.70;;;13.87;;
19869;SDS011;10097;50.862;4.696;2022-12-13T04:57:42;41.57;;;12.97;;
19869;SDS011;10097;50.862;4.696;2022-12-13T05:00:09;34.03;;;11.40;;
19869;SDS011;10097;50.862;4.696;2022-12-13T05:02:37;35.10;;;11.77;;
19869;SDS011;10097;50.862;4.696;2022-12-13T05:05:05;34.23;;;11.93;;
19869;SDS011;10097;50.862;4.696;2022-12-13T05:07:32;30.23;;;11.67;;
19869;SDS011;10097;50.862;4.696;2022-12-13T05:09:58;39.17;;;12.90;;
19869;SDS011;10097;50.862;4.696;2022-12-13T05:12:23;30.80;;;12.53;;
19869;SDS011;10097;50.862;4.696;2022-12-13T05:14:50;37.93;;;13.03;;
19869;SDS011;10097;50.862;4.696;2022-12-13T05:17:16;30.07;;;13.13;;
19869;SDS011;10097;50.862;4.696;2022-12-13T05:19:42;34.50;;;12.03;;
19869;SDS011;10097;50.862;4.696;2022-12-13T05:22:08;27.97;;;11.30;;
19869;SDS011;10097;50.862;4.696;2022-12-13T05:24:42;42.40;;;13.43;;
19869;SDS011;10097;50.862;4.696;2022-12-13T05:27:09;106.60;;;36.73;;
19869;SDS011;10097;50.862;4.696;2022-12-13T05:29:36;126.73;;;45.07;;
19869;SDS011;10097;50.862;4.696;2022-12-13T05:32:01;105.20;;;40.13;;
19869;SDS011;10097;50.862;4.696;2022-12-13T05:34:28;119.23;;;41.83;;
19869;SDS011;10097;50.862;4.696;2022-12-13T05:36:53;92.50;;;39.40;;
19869;SDS011;10097;50.862;4.696;2022-12-13T05:39:19;61.80;;;27.00;;
19869;SDS011;10097;50.862;4.696;2022-12-13T05:41:45;62.23;;;25.47;;
19869;SDS011;10097;50.862;4.696;2022-12-13T05:44:11;46.03;;;21.10;;
19869;SDS011;10097;50.862;4.696;2022-12-13T05:46:39;45.63;;;20.40;;
19869;SDS011;10097;50.862;4.696;2022-12-13T05:49:04;41.00;;;18.43;;
19869;SDS011;10097;50.862;4.696;2022-12-13T05:51:30;39.33;;;16.00;;
19869;SDS011;10097;50.862;4.696;2022-12-13T05:53:56;31.43;;;12.57;;
19869;SDS011;10097;50.862;4.696;2022-12-13T05:56:21;32.20;;;13.70;;
19869;SDS011;10097;50.862;4.696;2022-12-13T05:58:47;34.57;;;13.23;;
19869;SDS011;10097;50.862;4.696;2022-12-13T06:01:14;32.33;;;13.57;;
19869;SDS011;10097;50.862;4.696;2022-12-13T06:03:41;36.83;;;14.13;;
19869;SDS011;10097;50.862;4.696;2022-12-13T06:06:07;32.30;;;15.07;;
19869;SDS011;10097;50.862;4.696;2022-12-13T06:08:35;33.00;;;13.83;;
19869;SDS011;10097;50.862;4.696;2022-12-13T06:11:01;26.60;;;11.73;;
19869;SDS011;10097;50.862;4.696;2022-12-13T06:13:28;30.13;;;11.70;;
19869;SDS011;10097;50.862;4.696;2022-12-13T06:15:53;35.30;;;12.50;;
19869;SDS011;10097;50.862;4.696;2022-12-13T06:18:24;29.37;;;12.43;;
19869;SDS011;10097;50.862;4.696;2022-12-13T06:20:56;30.00;;;11.60;;
19869;SDS011;10097;50.862;4.696;2022-12-13T06:23:24;30.37;;;12.57;;
19869;SDS011;10097;50.862;4.696;2022-12-13T06:25:50;86.97;;;33.97;;
19869;SDS011;10097;50.862;4.696;2022-12-13T06:28:16;73.87;;;28.60;;
19869;SDS011;10097;50.862;4.696;2022-12-13T06:30:41;61.70;;;27.53;;
19869;SDS011;10097;50.862;4.696;2022-12-13T06:33:08;65.90;;;28.40;;
19869;SDS011;10097;50.862;4.696;2022-12-13T06:35:35;53.77;;;24.50;;
19869;SDS011;10097;50.862;4.696;2022-12-13T06:38:01;43.37;;;21.27;;
19869;SDS011;10097;50.862;4.696;2022-12-13T06:40:27;49.43;;;21.63;;
19869;SDS011;10097;50.862;4.696;2022-12-13T06:42:54;47.07;;;18.77;;
19869;SDS011;10097;50.862;4.696;2022-12-13T06:45:20;39.97;;;17.20;;
19869;SDS011;10097;50.862;4.696;2022-12-13T06:47:45;37.73;;;16.17;;
19869;SDS011;10097;50.862;4.696;2022-12-13T06:50:11;33.77;;;16.80;;
19869;SDS011;10097;50.862;4.696;2022-12-13T06:52:37;33.90;;;15.23;;
19869;SDS011;10097;50.862;4.696;2022-12-13T06:55:03;37.77;;;17.33;;
19869;SDS011;10097;50.862;4.696;2022-12-13T06:57:30;30.57;;;15.20;;
19869;SDS011;10097;50.862;4.696;2022-12-13T06:59:58;29.83;;;13.43;;
19869;SDS011;10097;50.862;4.696;2022-12-13T07:02:24;41.53;;;16.13;;
19869;SDS011;10097;50.862;4.696;2022-12-13T07:04:49;34.40;;;14.60;;
19869;SDS011;10097;50.862;4.696;2022-12-13T07:07:15;38.23;;;14.63;;
19869;SDS011;10097;50.862;4.696;2022-12-13T07:09:41;30.57;;;13.80;;
19869;SDS011;10097;50.862;4.696;2022-12-13T07:12:06;36.80;;;16.50;;
19869;SDS011;10097;50.862;4.696;2022-12-13T07:14:32;40.17;;;15.00;;
19869;SDS011;10097;50.862;4.696;2022-12-13T07:16:58;43.27;;;14.10;;
19869;SDS011;10097;50.862;4.696;2022-12-13T07:19:23;34.03;;;13.67;;
19869;SDS011;10097;50.862;4.696;2022-12-13T07:21:49;30.93;;;14.67;;
19869;SDS011;10097;50.862;4.696;2022-12-13T07:24:15;39.37;;;15.10;;
19869;SDS011;10097;50.862;4.696;2022-12-13T07:26:41;29.27;;;13.63;;
19869;SDS011;10097;50.862;4.696;2022-12-13T07:29:07;31.07;;;13.07;;
19869;SDS011;10097;50.862;4.696;2022-12-13T07:31:33;31.20;;;13.43;;
19869;SDS011;10097;50.862;4.696;2022-12-13T07:34:00;31.87;;;12.07;;
19869;SDS011;10097;50.862;4.696;2022-12-13T07:36:26;33.27;;;14.73;;
19869;SDS011;10097;50.862;4.696;2022-12-13T07:38:55;32.80;;;14.03;;
19869;SDS011;10097;50.862;4.696;2022-12-13T07:41:22;33.33;;;13.47;;
19869;SDS011;10097;50.862;4.696;2022-12-13T07:43:48;38.17;;;15.30;;
19869;SDS011;10097;50.862;4.696;2022-12-13T07:46:14;37.20;;;16.97;;
19869;SDS011;10097;50.862;4.696;2022-12-13T07:48:40;38.77;;;16.07;;
19869;SDS011;10097;50.862;4.696;2022-12-13T07:51:06;39.20;;;17.47;;
19869;SDS011;10097;50.862;4.696;2022-12-13T07:53:35;37.53;;;16.50;;
19869;SDS011;10097;50.862;4.696;2022-12-13T07:56:02;39.87;;;17.17;;
19869;SDS011;10097;50.862;4.696;2022-12-13T07:58:29;44.53;;;18.30;;
19869;SDS011;10097;50.862;4.696;2022-12-13T08:01:01;44.37;;;18.30;;
19869;SDS011;10097;50.862;4.696;2022-12-13T08:03:36;44.50;;;19.87;;
19869;SDS011;10097;50.862;4.696;2022-12-13T08:08:28;54.43;;;22.83;;
19869;SDS011;10097;50.862;4.696;2022-12-13T08:10:54;56.50;;;23.63;;
19869;SDS011;10097;50.862;4.696;2022-12-13T08:13:28;67.27;;;23.43;;
19869;SDS011;10097;50.862;4.696;2022-12-13T08:15:58;81.53;;;25.97;;
19869;SDS011;10097;50.862;4.696;2022-12-13T08:18:24;76.80;;;26.23;;
19869;SDS011;10097;50.862;4.696;2022-12-13T08:20:50;57.53;;;23.47;;
19869;SDS011;10097;50.862;4.696;2022-12-13T08:23:16;50.53;;;20.50;;
19869;SDS011;10097;50.862;4.696;2022-12-13T08:25:41;50.53;;;19.80;;
19869;SDS011;10097;50.862;4.696;2022-12-13T08:28:07;60.43;;;22.13;;
19869;SDS011;10097;50.862;4.696;2022-12-13T08:30:32;47.67;;;20.40;;
19869;SDS011;10097;50.862;4.696;2022-12-13T08:32:59;41.73;;;18.27;;
19869;SDS011;10097;50.862;4.696;2022-12-13T08:35:30;42.80;;;16.63;;
19869;SDS011;10097;50.862;4.696;2022-12-13T08:37:56;37.97;;;16.33;;
19869;SDS011;10097;50.862;4.696;2022-12-13T08:40:22;33.87;;;15.10;;
19869;SDS011;10097;50.862;4.696;2022-12-13T08:42:47;49.47;;;17.30;;
19869;SDS011;10097;50.862;4.696;2022-12-13T08:45:13;55.73;;;20.73;;
19869;SDS011;10097;50.862;4.696;2022-12-13T08:47:39;50.60;;;19.73;;
19869;SDS011;10097;50.862;4.696;2022-12-13T08:50:04;45.77;;;18.00;;
19869;SDS011;10097;50.862;4.696;2022-12-13T08:52:31;63.37;;;21.23;;
19869;SDS011;10097;50.862;4.696;2022-12-13T08:54:57;40.37;;;16.83;;
19869;SDS011;10097;50.862;4.696;2022-12-13T08:57:23;62.20;;;22.27;;
19869;SDS011;10097;50.862;4.696;2022-12-13T08:59:49;72.00;;;25.23;;
19869;SDS011;10097;50.862;4.696;2022-12-13T09:02:14;59.00;;;19.80;;
19869;SDS011;10097;50.862;4.696;2022-12-13T09:04:41;57.50;;;21.97;;
19869;SDS011;10097;50.862;4.696;2022-12-13T09:07:07;43.90;;;16.43;;
19869;SDS011;10097;50.862;4.696;2022-12-13T09:09:32;50.83;;;18.87;;
19869;SDS011;10097;50.862;4.696;2022-12-13T09:11:58;47.47;;;19.17;;
19869;SDS011;10097;50.862;4.696;2022-12-13T09:14:23;51.77;;;20.87;;
19869;SDS011;10097;50.862;4.696;2022-12-13T09:16:49;46.87;;;18.80;;
19869;SDS011;10097;50.862;4.696;2022-12-13T09:19:15;56.27;;;24.07;;
19869;SDS011;10097;50.862;4.696;2022-12-13T09:21:40;66.27;;;26.83;;
19869;SDS011;10097;50.862;4.696;2022-12-13T09:24:06;50.77;;;22.13;;
19869;SDS011;10097;50.862;4.696;2022-12-13T09:26:32;43.93;;;19.63;;
19869;SDS011;10097;50.862;4.696;2022-12-13T09:28:57;35.47;;;17.63;;
19869;SDS011;10097;50.862;4.696;2022-12-13T09:31:23;40.00;;;17.20;;
19869;SDS011;10097;50.862;4.696;2022-12-13T09:33:49;41.37;;;14.70;;
19869;SDS011;10097;50.862;4.696;2022-12-13T09:36:20;32.57;;;16.50;;
19869;SDS011;10097;50.862;4.696;2022-12-13T09:38:46;32.27;;;14.93;;
19869;SDS011;10097;50.862;4.696;2022-12-13T09:41:29;32.93;;;14.70;;
19869;SDS011;10097;50.862;4.696;2022-12-13T09:43:59;34.17;;;16.73;;
19869;SDS011;10097;50.862;4.696;2022-12-13T09:46:30;27.30;;;13.07;;
19869;SDS011;10097;50.862;4.696;2022-12-13T09:49:00;34.20;;;14.67;;
19869;SDS011;10097;50.862;4.696;2022-12-13T09:51:28;42.33;;;15.47;;
19869;SDS011;10097;50.862;4.696;2022-12-13T09:53:57;40.17;;;15.63;;
19869;SDS011;10097;50.862;4.696;2022-12-13T09:56:24;39.33;;;14.53;;
19869;SDS011;10097;50.862;4.696;2022-12-13T09:58:50;44.13;;;15.83;;
19869;SDS011;10097;50.862;4.696;2022-12-13T10:01:18;38.30;;;14.57;;
19869;SDS011;10097;50.862;4.696;2022-12-13T10:03:48;33.47;;;13.67;;
19869;SDS011;10097;50.862;4.696;2022-12-13T10:06:19;31.23;;;14.37;;
19869;SDS011;10097;50.862;4.696;2022-12-13T10:08:47;32.97;;;13.73;;
19869;SDS011;10097;50.862;4.696;2022-12-13T10:11:17;32.97;;;14.23;;
19869;SDS011;10097;50.862;4.696;2022-12-13T10:13:53;58.70;;;20.70;;
19869;SDS011;10097;50.862;4.696;2022-12-13T10:19:01;32.60;;;14.40;;
19869;SDS011;10097;50.862;4.696;2022-12-13T10:21:41;32.93;;;15.00;;
19869;SDS011;10097;50.862;4.696;2022-12-13T10:26:42;33.30;;;15.67;;
19869;SDS011;10097;50.862;4.696;2022-12-13T10:29:08;38.20;;;15.90;;
19869;SDS011;10097;50.862;4.696;2022-12-13T10:31:38;33.03;;;15.47;;
19869;SDS011;10097;50.862;4.696;2022-12-13T10:34:06;30.23;;;13.10;;
19869;SDS011;10097;50.862;4.696;2022-12-13T10:36:46;31.60;;;13.57;;
19869;SDS011;10097;50.862;4.696;2022-12-13T10:39:16;28.60;;;12.10;;
19869;SDS011;10097;50.862;4.696;2022-12-13T10:42:12;30.80;;;12.70;;
19869;SDS011;10097;50.862;4.696;2022-12-13T10:44:39;26.23;;;11.60;;
19869;SDS011;10097;50.862;4.696;2022-12-13T10:49:36;29.23;;;12.47;;
19869;SDS011;10097;50.862;4.696;2022-12-13T10:52:05;27.00;;;11.67;;
19869;SDS011;10097;50.862;4.696;2022-12-13T10:54:43;31.20;;;11.60;;
19869;SDS011;10097;50.862;4.696;2022-12-13T10:57:11;27.43;;;11.57;;
19869;SDS011;10097;50.862;4.696;2022-12-13T10:59:38;31.33;;;13.03;;
19869;SDS011;10097;50.862;4.696;2022-12-13T11:04:58;46.57;;;18.97;;
19869;SDS011;10097;50.862;4.696;2022-12-13T11:07:40;52.30;;;19.87;;
19869;SDS011;10097;50.862;4.696;2022-12-13T11:12:44;30.23;;;13.20;;
19869;SDS011;10097;50.862;4.696;2022-12-13T11:15:15;44.93;;;16.23;;
19869;SDS011;10097;50.862;4.696;2022-12-13T11:17:47;50.07;;;16.90;;
19869;SDS011;10097;50.862;4.696;2022-12-13T11:20:18;46.33;;;17.17;;
19869;SDS011;10097;50.862;4.696;2022-12-13T11:23:46;35.47;;;14.13;;
19869;SDS011;10097;50.862;4.696;2022-12-13T11:26:13;39.23;;;17.07;;
19869;SDS011;10097;50.862;4.696;2022-12-13T11:31:25;34.37;;;15.03;;
19869;SDS011;10097;50.862;4.696;2022-12-13T11:36:43;33.53;;;14.17;;
19869;SDS011;10097;50.862;4.696;2022-12-13T11:39:38;38.00;;;14.30;;
19869;SDS011;10097;50.862;4.696;2022-12-13T11:44:57;31.03;;;13.00;;
19869;SDS011;10097;50.862;4.696;2022-12-13T11:50:16;27.60;;;11.20;;
19869;SDS011;10097;50.862;4.696;2022-12-13T11:52:48;26.00;;;11.47;;
19869;SDS011;10097;50.862;4.696;2022-12-13T11:55:34;25.97;;;11.53;;
19869;SDS011;10097;50.862;4.696;2022-12-13T11:58:05;24.37;;;9.47;;
19869;SDS011;10097;50.862;4.696;2022-12-13T12:00:46;27.30;;;11.13;;
19869;SDS011;10097;50.862;4.696;2022-12-13T12:06:22;24.07;;;10.23;;
19869;SDS011;10097;50.862;4.696;2022-12-13T12:14:20;19.87;;;9.00;;
19869;SDS011;10097;50.862;4.696;2022-12-13T12:16:53;25.23;;;10.33;;
19869;SDS011;10097;50.862;4.696;2022-12-13T12:19:25;23.53;;;9.93;;
19869;SDS011;10097;50.862;4.696;2022-12-13T12:22:18;26.93;;;12.77;;
19869;SDS011;10097;50.862;4.696;2022-12-13T12:33:36;47.87;;;21.37;;
19869;SDS011;10097;50.862;4.696;2022-12-13T12:47:03;22.17;;;10.37;;
19869;SDS011;10097;50.862;4.696;2022-12-13T12:52:15;21.23;;;8.80;;
19869;SDS011;10097;50.862;4.696;2022-12-13T12:57:58;24.23;;;10.20;;
19869;SDS011;10097;50.862;4.696;2022-12-13T13:00:29;23.10;;;10.33;;
19869;SDS011;10097;50.862;4.696;2022-12-13T13:08:45;22.43;;;10.27;;
19869;SDS011;10097;50.862;4.696;2022-12-13T13:11:21;26.27;;;10.20;;
19869;SDS011;10097;50.862;4.696;2022-12-13T13:14:07;23.40;;;9.90;;
19869;SDS011;10097;50.862;4.696;2022-12-13T13:16:53;24.77;;;11.20;;
19869;SDS011;10097;50.862;4.696;2022-12-13T13:21:55;24.90;;;10.03;;
19869;SDS011;10097;50.862;4.696;2022-12-13T13:24:31;29.30;;;11.87;;
19869;SDS011;10097;50.862;4.696;2022-12-13T13:29:36;25.33;;;11.57;;
19869;SDS011;10097;50.862;4.696;2022-12-13T13:34:44;28.97;;;11.00;;
19869;SDS011;10097;50.862;4.696;2022-12-13T13:42:25;26.37;;;10.60;;
19869;SDS011;10097;50.862;4.696;2022-12-13T13:44:53;23.83;;;10.33;;
19869;SDS011;10097;50.862;4.696;2022-12-13T13:47:38;26.13;;;11.67;;
19869;SDS011;10097;50.862;4.696;2022-12-13T14:09:49;26.27;;;11.90;;
19869;SDS011;10097;50.862;4.696;2022-12-13T14:15:40;31.03;;;11.73;;
19869;SDS011;10097;50.862;4.696;2022-12-13T14:24:14;31.60;;;13.10;;
19869;SDS011;10097;50.862;4.696;2022-12-13T14:29:30;28.07;;;11.77;;
19869;SDS011;10097;50.862;4.696;2022-12-13T14:32:03;32.87;;;13.73;;
19869;SDS011;10097;50.862;4.696;2022-12-13T14:34:35;31.00;;;13.77;;
19869;SDS011;10097;50.862;4.696;2022-12-13T14:37:05;34.83;;;14.97;;
19869;SDS011;10097;50.862;4.696;2022-12-13T14:40:00;30.93;;;13.23;;
19869;SDS011;10097;50.862;4.696;2022-12-13T14:42:28;33.50;;;13.87;;
19869;SDS011;10097;50.862;4.696;2022-12-13T14:45:17;33.57;;;13.57;;
19869;SDS011;10097;50.862;4.696;2022-12-13T14:47:54;36.90;;;13.77;;
19869;SDS011;10097;50.862;4.696;2022-12-13T14:50:22;36.93;;;13.77;;
19869;SDS011;10097;50.862;4.696;2022-12-13T14:52:50;30.30;;;13.13;;
19869;SDS011;10097;50.862;4.696;2022-12-13T14:55:24;30.10;;;13.07;;
19869;SDS011;10097;50.862;4.696;2022-12-13T14:57:53;31.30;;;14.57;;
19869;SDS011;10097;50.862;4.696;2022-12-13T15:00:26;36.73;;;15.47;;
19869;SDS011;10097;50.862;4.696;2022-12-13T15:02:56;35.07;;;14.27;;
19869;SDS011;10097;50.862;4.696;2022-12-13T15:05:25;38.43;;;16.00;;
19869;SDS011;10097;50.862;4.696;2022-12-13T15:07:56;44.67;;;15.20;;
19869;SDS011;10097;50.862;4.696;2022-12-13T15:10:25;37.50;;;15.73;;
19869;SDS011;10097;50.862;4.696;2022-12-13T15:12:55;35.77;;;16.03;;
19869;SDS011;10097;50.862;4.696;2022-12-13T15:15:28;36.73;;;15.17;;
19869;SDS011;10097;50.862;4.696;2022-12-13T15:18:04;38.27;;;16.67;;
19869;SDS011;10097;50.862;4.696;2022-12-13T15:20:43;48.20;;;17.90;;
19869;SDS011;10097;50.862;4.696;2022-12-13T15:28:34;39.00;;;15.70;;
19869;SDS011;10097;50.862;4.696;2022-12-13T15:31:03;37.60;;;16.43;;
19869;SDS011;10097;50.862;4.696;2022-12-13T15:33:30;39.17;;;16.80;;
19869;SDS011;10097;50.862;4.696;2022-12-13T15:36:16;41.10;;;15.03;;
19869;SDS011;10097;50.862;4.696;2022-12-13T15:38:57;40.87;;;15.67;;
19869;SDS011;10097;50.862;4.696;2022-12-13T15:44:16;39.73;;;15.87;;
19869;SDS011;10097;50.862;4.696;2022-12-13T15:46:43;38.93;;;16.40;;
19869;SDS011;10097;50.862;4.696;2022-12-13T15:49:19;46.73;;;17.10;;
19869;SDS011;10097;50.862;4.696;2022-12-13T15:51:56;42.27;;;16.77;;
19869;SDS011;10097;50.862;4.696;2022-12-13T15:54:25;38.70;;;16.37;;
19869;SDS011;10097;50.862;4.696;2022-12-13T16:01:54;40.50;;;16.47;;
19869;SDS011;10097;50.862;4.696;2022-12-13T16:04:22;42.90;;;16.00;;
19869;SDS011;10097;50.862;4.696;2022-12-13T16:06:49;40.47;;;15.87;;
19869;SDS011;10097;50.862;4.696;2022-12-13T16:09:17;38.67;;;15.67;;
19869;SDS011;10097;50.862;4.696;2022-12-13T16:11:48;37.40;;;16.77;;
19869;SDS011;10097;50.862;4.696;2022-12-13T16:16:59;36.67;;;15.33;;
19869;SDS011;10097;50.862;4.696;2022-12-13T16:19:29;40.77;;;16.70;;
19869;SDS011;10097;50.862;4.696;2022-12-13T16:21:56;43.67;;;15.60;;
19869;SDS011;10097;50.862;4.696;2022-12-13T16:24:22;40.50;;;16.03;;
19869;SDS011;10097;50.862;4.696;2022-12-13T16:26:47;35.73;;;15.43;;
19869;SDS011;10097;50.862;4.696;2022-12-13T16:29:15;36.30;;;15.87;;
19869;SDS011;10097;50.862;4.696;2022-12-13T16:31:45;37.63;;;15.53;;
19869;SDS011;10097;50.862;4.696;2022-12-13T16:34:11;36.97;;;14.80;;
19869;SDS011;10097;50.862;4.696;2022-12-13T16:36:37;37.70;;;15.63;;
19869;SDS011;10097;50.862;4.696;2022-12-13T16:39:04;34.30;;;14.93;;
19869;SDS011;10097;50.862;4.696;2022-12-13T16:41:38;40.37;;;16.20;;
19869;SDS011;10097;50.862;4.696;2022-12-13T16:44:07;35.40;;;15.60;;
19869;SDS011;10097;50.862;4.696;2022-12-13T16:46:43;33.83;;;15.33;;
19869;SDS011;10097;50.862;4.696;2022-12-13T16:49:17;37.33;;;15.37;;
19869;SDS011;10097;50.862;4.696;2022-12-13T16:51:45;38.13;;;16.57;;
19869;SDS011;10097;50.862;4.696;2022-12-13T16:54:11;37.87;;;15.47;;
19869;SDS011;10097;50.862;4.696;2022-12-13T16:56:36;37.83;;;16.20;;
19869;SDS011;10097;50.862;4.696;2022-12-13T16:59:02;69.80;;;21.53;;
19869;SDS011;10097;50.862;4.696;2022-12-13T17:01:28;56.47;;;18.53;;
19869;SDS011;10097;50.862;4.696;2022-12-13T17:03:56;35.47;;;14.93;;